Portada
METAR-TAF:

METAR-TAF

Aeroports :

Najran, Aràbia Saudita

latitud: 17-37N, longitud: 044-25E, altitud: 1212 m

Observació

L'informe es va fer fa 46 minuts, a les 14:00 UTC
Vent 8 kt del Est
Temperatura 30°C
Humitat 21%
Pressió 1016 hPa
Visibilitat 10 km o més
sense núvols per sota de 1500 mi sense presència de cumulonimbus.

METAR: OENG 021400Z 09008KT CAVOK 30/05 Q1016 NOSIG

Hora: 17:46 (14:46 UTC)

Pronòstic

L'informe es va fer fa 3 hores i 46 minuts, a les 11:00 UTC
Pronòstic vàlid del 02 a les 12 UTC al 03 a les 18 UTC
Vent 8 kt del Nord-Est
Visibilitat 10 km o més
sense núvols per sota de 1500 mi sense presència de cumulonimbus.
Evolucionant progressivament
l' 02 a les 18 UTC al 02 a les 20 UTC
Vent 10 kt del Nord/Nord-Oest

TAF: OENG 021100Z 0212/0318 04008KT CAVOK BECMG 0218/0220 34010KT

Observacions i pronòstics meteorològics de més de 4000 aeroports (METAR i TAF).

Les estacions disponibles són els punts grocs i vermells al mapa.

Posi el ratolí al punt desitjat per veure el nom de l'estació.

Feu clic per veure les observacions i els pronòstics meteorològics.

Per canviar el mapa: feu clic els botons verds amb una creu de color negre per apropar; al botó verd amb un guió per allunyar la imatge; o en les fletxes verdes per a mapes adjacents.


METAR-TAF: